createdAt,value
2022-08-26T00:00:16.524Z,11.6
2022-08-26T00:05:21.573Z,11.7
2022-08-26T00:10:27.651Z,11.8
2022-08-26T00:15:17.071Z,12.1
2022-08-26T00:20:22.805Z,12.2
2022-08-26T00:25:28.452Z,11.6
2022-08-26T00:30:17.526Z,12.2
2022-08-26T00:35:23.612Z,11.7
2022-08-26T00:40:29.695Z,12.1
2022-08-26T00:45:18.685Z,11.9
2022-08-26T00:50:24.760Z,13.2
2022-08-26T00:55:37.742Z,12.4
2022-08-26T01:00:19.838Z,12.0
2022-08-26T01:05:26.041Z,11.9
2022-08-26T01:10:32.108Z,11.6
2022-08-26T01:15:21.078Z,11.8
2022-08-26T01:20:27.213Z,11.9
2022-08-26T01:25:15.891Z,12.0
2022-08-26T01:30:21.980Z,12.2
2022-08-26T01:35:28.035Z,11.2
2022-08-26T01:40:17.180Z,12.1
2022-08-26T01:45:23.127Z,11.3
2022-08-26T01:50:30.346Z,11.8
2022-08-26T01:55:32.029Z,11.9
2022-08-26T02:00:24.356Z,11.6
2022-08-26T02:05:29.501Z,12.6
2022-08-26T02:10:18.481Z,11.5
2022-08-26T02:15:24.547Z,12.4
2022-08-26T02:20:30.670Z,12.3
2022-08-26T02:25:19.647Z,12.2
2022-08-26T02:30:26.013Z,11.7
2022-08-26T02:35:31.804Z,11.3
2022-08-26T02:40:20.965Z,11.7
2022-08-26T02:45:26.902Z,12.1
2022-08-26T02:50:15.926Z,13.0
2022-08-26T02:55:22.060Z,12.2
2022-08-26T03:00:28.307Z,11.2
2022-08-26T03:05:17.224Z,11.9
2022-08-26T03:10:23.318Z,11.7
2022-08-26T03:15:29.344Z,11.5
2022-08-26T03:20:18.409Z,12.3
2022-08-26T03:25:24.777Z,12.7
2022-08-26T03:30:30.410Z,12.1
2022-08-26T03:35:19.431Z,12.0
2022-08-26T03:40:25.572Z,11.7
2022-08-26T03:45:31.542Z,11.1
2022-08-26T03:50:22.595Z,11.4
2022-08-26T03:55:26.612Z,11.4
2022-08-26T04:00:32.992Z,11.5
2022-08-26T04:05:20.861Z,11.2
2022-08-26T04:10:28.460Z,12.0
2022-08-26T04:15:16.027Z,12.2
2022-08-26T04:20:22.042Z,12.3
2022-08-26T04:25:27.758Z,11.5
2022-08-26T04:30:16.850Z,11.6
2022-08-26T04:35:25.769Z,11.3
2022-08-26T04:40:28.947Z,11.3
2022-08-26T04:45:17.949Z,11.5
2022-08-26T04:50:24.073Z,11.3
2022-08-26T04:55:38.470Z,10.6
2022-08-26T05:00:19.128Z,10.6
2022-08-26T05:05:25.403Z,10.3
2022-08-26T05:10:31.336Z,10.9
2022-08-26T05:15:20.343Z,17.3
2022-08-26T05:20:26.453Z,9.3
2022-08-26T05:25:32.156Z,8.5
2022-08-26T05:30:21.215Z,8.2
2022-08-26T05:35:27.256Z,7.8
2022-08-26T05:40:16.387Z,8.0
2022-08-26T05:45:22.359Z,8.5
2022-08-26T05:50:28.526Z,8.6
2022-08-26T05:55:17.502Z,8.2
2022-08-26T06:00:23.633Z,8.4
2022-08-26T06:05:29.177Z,8.3
2022-08-26T06:10:33.610Z,9.0
2022-08-26T06:12:00.227Z,8.9
2022-08-26T06:15:24.132Z,8.8
2022-08-26T06:20:30.182Z,9.6
2022-08-26T06:21:25.209Z,9.4
2022-08-26T06:25:18.730Z,9.7
2022-08-26T06:30:24.918Z,9.5
2022-08-26T06:35:31.360Z,9.7
2022-08-26T06:40:20.231Z,9.8
2022-08-26T06:45:25.931Z,9.7
2022-08-26T06:50:32.015Z,10.6
2022-08-26T06:55:21.011Z,10.0
2022-08-26T07:00:27.104Z,9.1
2022-08-26T07:05:16.246Z,9.9
2022-08-26T07:10:22.479Z,9.5
2022-08-26T07:15:31.399Z,9.1
2022-08-26T07:20:17.398Z,9.4
2022-08-26T07:25:23.185Z,9.3
2022-08-26T07:30:29.207Z,9.7
2022-08-26T07:35:18.316Z,9.4
2022-08-26T07:40:24.406Z,10.1
2022-08-26T07:45:30.379Z,9.3
2022-08-26T07:50:19.420Z,9.1
2022-08-26T07:55:25.518Z,8.9
2022-08-26T08:00:31.575Z,9.1
2022-08-26T08:05:19.725Z,8.9
2022-08-26T08:10:25.953Z,8.6
2022-08-26T08:15:31.798Z,8.2
2022-08-26T08:20:21.003Z,8.6
2022-08-26T08:25:26.815Z,7.7
2022-08-26T08:30:20.807Z,7.3
2022-08-26T08:35:21.951Z,6.9
2022-08-26T08:40:28.081Z,7.0
2022-08-26T08:45:17.081Z,7.2
2022-08-26T08:50:23.121Z,6.7
2022-08-26T08:55:29.173Z,6.2
2022-08-26T09:00:18.254Z,5.9
2022-08-26T09:05:24.407Z,6.3
2022-08-26T09:10:30.410Z,6.0
2022-08-26T09:15:19.400Z,5.9
2022-08-26T09:20:25.576Z,5.5
2022-08-26T09:25:31.421Z,5.8
2022-08-26T09:30:20.474Z,6.0
2022-08-26T09:35:26.535Z,6.1
2022-08-26T09:40:15.709Z,5.7
2022-08-26T09:45:21.648Z,6.1
2022-08-26T09:50:28.888Z,5.6
2022-08-26T09:55:16.806Z,5.3
2022-08-26T10:00:22.930Z,5.4
2022-08-26T10:05:29.840Z,5.6
2022-08-26T10:10:18.561Z,5.2
2022-08-26T10:15:24.793Z,5.4
2022-08-26T10:20:30.725Z,5.9
2022-08-26T10:25:19.716Z,6.2
2022-08-26T10:30:25.799Z,13.9
2022-08-26T10:40:20.986Z,6.2
2022-08-26T10:45:26.938Z,6.9
2022-08-26T10:50:17.974Z,6.7
2022-08-26T10:55:22.071Z,6.2
2022-08-26T11:00:28.118Z,5.9
2022-08-26T11:05:17.306Z,6.0
2022-08-26T11:10:23.378Z,5.4
2022-08-26T11:15:29.582Z,5.3
2022-08-26T11:20:18.466Z,4.5
2022-08-26T11:25:29.131Z,4.4
2022-08-26T11:30:30.172Z,3.5
2022-08-26T11:35:19.202Z,3.8
2022-08-26T11:40:25.349Z,3.7
2022-08-26T11:45:31.377Z,3.7
2022-08-26T11:50:20.377Z,4.5
2022-08-26T11:55:26.425Z,4.7
2022-08-26T12:00:33.785Z,5.4
2022-08-26T12:05:20.596Z,5.1
2022-08-26T12:10:29.399Z,5.0
2022-08-26T12:15:15.723Z,4.7
2022-08-26T12:20:21.834Z,4.7
2022-08-26T12:25:27.755Z,5.8
2022-08-26T12:30:18.041Z,5.6
2022-08-26T12:35:22.909Z,5.0
2022-08-26T12:40:29.051Z,5.0
2022-08-26T12:45:17.960Z,5.8
2022-08-26T12:50:24.031Z,6.2
2022-08-26T12:55:30.092Z,6.0
2022-08-26T13:00:19.147Z,6.0
2022-08-26T13:05:25.284Z,5.6
2022-08-26T13:10:31.610Z,5.9
2022-08-26T13:15:20.367Z,5.8
2022-08-26T13:20:26.476Z,6.0
2022-08-26T13:25:32.305Z,6.3
2022-08-26T13:30:22.247Z,6.2
2022-08-26T13:35:27.399Z,5.9
2022-08-26T13:40:16.632Z,6.0
2022-08-26T13:45:22.485Z,6.0
2022-08-26T13:50:28.588Z,5.6
2022-08-26T13:55:17.600Z,51.3
2022-08-26T14:00:23.846Z,41.5
2022-08-26T14:05:29.142Z,6.4
2022-08-26T14:10:18.162Z,4.6
2022-08-26T14:15:24.233Z,5.3
2022-08-26T14:20:30.443Z,5.3
2022-08-26T14:25:18.894Z,6.2
2022-08-26T14:30:24.981Z,5.8
2022-08-26T14:35:31.041Z,5.8
2022-08-26T14:40:20.230Z,5.4
2022-08-26T14:45:26.132Z,5.6
2022-08-26T14:50:32.216Z,5.7
2022-08-26T14:55:21.246Z,5.7
2022-08-26T15:00:27.317Z,5.2
2022-08-26T15:05:15.436Z,5.4
2022-08-26T15:10:21.505Z,5.2
2022-08-26T15:15:27.537Z,5.6
2022-08-26T15:20:16.619Z,5.3
2022-08-26T15:25:23.387Z,4.9
2022-08-26T15:30:29.391Z,6.1
2022-08-26T15:35:18.457Z,5.9
2022-08-26T15:40:24.622Z,4.3
2022-08-26T15:45:30.575Z,4.7
2022-08-26T15:50:19.639Z,5.3
2022-08-26T15:55:25.732Z,5.1
2022-08-26T16:00:31.756Z,5.5
2022-08-26T16:05:19.897Z,5.6
2022-08-26T16:10:25.898Z,5.4
2022-08-26T16:15:32.022Z,5.5
2022-08-26T16:20:20.978Z,5.6
2022-08-26T16:25:27.146Z,26.7
2022-08-26T16:30:16.148Z,11.7
2022-08-26T16:35:22.207Z,6.2
2022-08-26T16:40:28.895Z,5.6
2022-08-26T16:45:17.305Z,5.7
2022-08-26T16:50:23.392Z,6.2
2022-08-26T16:55:29.458Z,5.8
2022-08-26T17:00:18.503Z,6.3
2022-08-26T17:05:23.649Z,6.9
2022-08-26T17:10:29.727Z,7.0
2022-08-26T17:15:19.019Z,6.9
2022-08-26T17:20:24.773Z,7.5
2022-08-26T17:25:30.653Z,7.8
2022-08-26T17:30:19.539Z,7.0
2022-08-26T17:35:25.622Z,7.4
2022-08-26T17:40:31.858Z,7.0
2022-08-26T17:45:25.862Z,7.3
2022-08-26T17:50:26.783Z,7.4
2022-08-26T17:55:15.834Z,6.6
2022-08-26T18:00:21.899Z,5.5
2022-08-26T18:05:28.260Z,5.8
2022-08-26T18:10:17.276Z,5.6
2022-08-26T18:15:23.741Z,5.4
2022-08-26T18:20:29.394Z,5.3
2022-08-26T18:25:18.175Z,5.4
2022-08-26T18:30:24.377Z,5.0
2022-08-26T18:35:30.297Z,4.9
2022-08-26T18:40:22.244Z,4.6
2022-08-26T18:45:25.393Z,3.9
2022-08-26T18:50:31.434Z,3.9
2022-08-26T18:55:20.481Z,5.0
2022-08-26T19:00:26.531Z,5.5
2022-08-26T19:05:31.679Z,3.8
2022-08-26T19:10:20.726Z,3.8
2022-08-26T19:15:27.087Z,3.9
2022-08-26T19:20:15.874Z,3.4
2022-08-26T19:25:21.639Z,3.5
2022-08-26T19:30:28.001Z,3.4
2022-08-26T19:35:16.728Z,3.2
2022-08-26T19:40:22.837Z,2.7
2022-08-26T19:45:28.897Z,2.2
2022-08-26T19:50:17.917Z,2.4
2022-08-26T19:55:23.970Z,2.6
2022-08-26T20:00:30.011Z,2.6
2022-08-26T20:05:19.143Z,2.8
2022-08-26T20:10:25.208Z,2.6
2022-08-26T20:15:31.425Z,2.9
2022-08-26T20:20:29.717Z,2.9
2022-08-26T20:25:26.044Z,2.9
2022-08-26T20:30:32.426Z,2.8
2022-08-26T20:35:21.153Z,2.8
2022-08-26T20:40:27.362Z,3.1
2022-08-26T20:45:16.253Z,3.0
2022-08-26T20:50:22.329Z,3.1
2022-08-26T20:55:28.389Z,3.2
2022-08-26T21:00:17.476Z,3.1
2022-08-26T21:05:22.580Z,3.2
2022-08-26T21:10:28.630Z,3.1
2022-08-26T21:15:17.671Z,3.2
2022-08-26T21:20:23.738Z,3.2
2022-08-26T21:25:30.384Z,3.1
2022-08-26T21:30:19.398Z,3.2
2022-08-26T21:35:25.676Z,3.3
2022-08-26T21:40:31.645Z,3.2
2022-08-26T21:45:20.596Z,3.6
2022-08-26T21:50:26.669Z,3.8
2022-08-26T21:55:32.760Z,3.5
2022-08-26T22:00:21.789Z,3.7
2022-08-26T22:05:27.065Z,4.1
2022-08-26T22:10:16.027Z,4.3
2022-08-26T22:15:22.082Z,4.4
2022-08-26T22:20:28.292Z,4.6
2022-08-26T22:25:16.925Z,4.6
2022-08-26T22:30:23.007Z,5.0
2022-08-26T22:35:29.750Z,5.3
2022-08-26T22:40:18.122Z,5.2
2022-08-26T22:45:24.165Z,5.3
2022-08-26T22:50:30.253Z,5.0
2022-08-26T22:55:19.242Z,4.5
2022-08-26T23:00:31.971Z,4.9
2022-08-26T23:05:30.545Z,4.8
2022-08-26T23:10:19.562Z,5.0
2022-08-26T23:15:25.645Z,4.8
2022-08-26T23:20:32.017Z,4.5
2022-08-26T23:25:21.353Z,4.5
2022-08-26T23:30:27.424Z,4.7
2022-08-26T23:35:17.395Z,5.0
2022-08-26T23:40:22.747Z,4.6
2022-08-26T23:45:28.638Z,4.6
2022-08-26T23:50:17.603Z,5.0
2022-08-26T23:55:23.714Z,5.4
